createdAt,value
2018-03-24T00:01:07.095Z,17.67
2018-03-24T00:03:33.308Z,17.63
2018-03-24T00:06:00.249Z,17.40
2018-03-24T00:08:27.204Z,15.97
2018-03-24T00:10:54.136Z,17.00
2018-03-24T00:13:21.100Z,16.37
2018-03-24T00:15:47.296Z,17.13
2018-03-24T00:18:13.517Z,16.00
2018-03-24T00:20:39.709Z,17.80
2018-03-24T00:23:06.164Z,18.90
2018-03-24T00:25:32.376Z,18.07
2018-03-24T00:27:58.564Z,15.97
2018-03-24T00:30:25.524Z,17.00
2018-03-24T00:32:51.761Z,17.70
2018-03-24T00:35:17.964Z,16.80
2018-03-24T00:37:44.910Z,17.17
2018-03-24T00:40:11.868Z,16.00
2018-03-24T00:42:38.809Z,15.87
2018-03-24T00:45:05.789Z,16.80
2018-03-24T00:47:31.988Z,17.43
2018-03-24T00:49:58.943Z,16.93
2018-03-24T00:52:25.165Z,19.33
2018-03-24T00:54:51.557Z,17.43
2018-03-24T00:57:17.781Z,21.80
2018-03-24T00:59:44.297Z,23.97
2018-03-24T01:02:10.508Z,24.10
2018-03-24T01:04:36.696Z,25.67
2018-03-24T01:07:02.921Z,26.60
2018-03-24T01:09:29.116Z,27.70
2018-03-24T01:11:55.341Z,25.93
2018-03-24T01:14:21.580Z,27.77
2018-03-24T01:16:47.772Z,24.70
2018-03-24T01:19:13.966Z,25.83
2018-03-24T01:21:40.560Z,26.20
2018-03-24T01:24:06.752Z,24.97
2018-03-24T01:26:33.705Z,26.00
2018-03-24T01:28:59.936Z,27.83
2018-03-24T01:31:26.157Z,26.80
2018-03-24T01:33:53.108Z,29.23
2018-03-24T01:36:20.061Z,29.20
2018-03-24T01:38:46.244Z,28.43
2018-03-24T01:41:12.460Z,25.10
2018-03-24T01:43:38.676Z,23.30
2018-03-24T01:46:04.906Z,24.43
2018-03-24T01:48:31.136Z,22.40
2018-03-24T01:50:57.328Z,20.90
2018-03-24T01:53:36.833Z,25.70
2018-03-24T01:56:03.037Z,23.40
2018-03-24T01:58:29.252Z,24.80
2018-03-24T02:00:55.439Z,22.50
2018-03-24T02:03:22.392Z,21.77
2018-03-24T02:05:49.329Z,22.13
2018-03-24T02:08:16.301Z,20.40
2018-03-24T02:10:42.543Z,20.03
2018-03-24T02:13:08.788Z,19.87
2018-03-24T02:15:35.447Z,18.47
2018-03-24T02:18:03.005Z,18.33
2018-03-24T02:20:30.769Z,19.23
2018-03-24T02:22:58.945Z,20.67
2018-03-24T02:25:25.177Z,17.57
2018-03-24T02:27:51.401Z,20.00
2018-03-24T02:30:17.616Z,19.50
2018-03-24T02:32:43.956Z,18.40
2018-03-24T02:35:10.929Z,20.63
2018-03-24T02:37:37.124Z,19.40
2018-03-24T02:40:03.340Z,19.67
2018-03-24T02:42:29.549Z,19.23
2018-03-24T02:44:55.763Z,20.30
2018-03-24T02:47:22.704Z,19.10
2018-03-24T02:49:49.665Z,18.40
2018-03-24T02:52:15.861Z,20.93
2018-03-24T02:54:42.355Z,22.70
2018-03-24T02:57:08.541Z,22.67
2018-03-24T02:59:35.496Z,22.30
2018-03-24T03:02:02.452Z,27.47
2018-03-24T03:04:28.669Z,25.53
2018-03-24T03:06:55.630Z,27.60
2018-03-24T03:09:21.840Z,32.20
2018-03-24T03:11:48.881Z,28.57
2018-03-24T03:14:15.132Z,28.97
2018-03-24T03:16:42.064Z,28.20
2018-03-24T03:19:09.040Z,29.83
2018-03-24T03:21:47.701Z,28.60
2018-03-24T03:24:14.000Z,26.10
2018-03-24T03:26:40.201Z,29.93
2018-03-24T03:29:07.198Z,28.20
2018-03-24T03:31:33.418Z,29.03
2018-03-24T03:33:59.600Z,26.37
2018-03-24T03:36:26.558Z,28.33
2018-03-24T03:38:52.752Z,25.90
2018-03-24T03:41:18.968Z,25.87
2018-03-24T03:43:45.164Z,28.00
2018-03-24T03:46:11.405Z,29.07
2018-03-24T03:48:37.597Z,29.50
2018-03-24T03:51:03.824Z,33.53
2018-03-24T03:53:30.016Z,32.17
2018-03-24T03:55:56.236Z,30.50
2018-03-24T03:58:22.437Z,28.87
2018-03-24T04:00:48.676Z,31.47
2018-03-24T04:03:14.868Z,30.60
2018-03-24T04:05:41.096Z,32.40
2018-03-24T04:08:08.030Z,31.70
2018-03-24T04:10:34.993Z,38.07
2018-03-24T04:13:01.193Z,37.43
2018-03-24T04:15:27.455Z,33.67
2018-03-24T04:17:53.648Z,34.50
2018-03-24T04:20:19.844Z,34.70
2018-03-24T04:22:46.080Z,36.70
2018-03-24T04:25:12.276Z,34.83
2018-03-24T04:27:38.492Z,38.57
2018-03-24T04:30:05.433Z,38.07
2018-03-24T04:32:32.401Z,38.57
2018-03-24T04:34:58.594Z,39.50
2018-03-24T04:37:25.560Z,35.77
2018-03-24T04:39:51.756Z,36.10
2018-03-24T04:42:17.998Z,35.90
2018-03-24T04:44:44.949Z,37.10
2018-03-24T04:47:11.908Z,36.10
2018-03-24T04:49:38.100Z,34.43
2018-03-24T04:52:04.342Z,37.00
2018-03-24T04:54:31.276Z,35.50
2018-03-24T04:56:57.502Z,34.77
2018-03-24T04:59:23.701Z,37.50
2018-03-24T05:01:49.916Z,36.70
2018-03-24T05:04:16.108Z,38.53
2018-03-24T05:06:43.065Z,40.17
2018-03-24T05:09:09.997Z,39.17
2018-03-24T05:11:36.228Z,40.40
2018-03-24T05:14:03.208Z,39.37
2018-03-24T05:16:29.407Z,37.53
2018-03-24T05:18:56.369Z,36.13
2018-03-24T05:21:23.304Z,41.40
2018-03-24T05:23:50.282Z,35.17
2018-03-24T05:26:16.480Z,36.80
2018-03-24T05:28:43.464Z,33.57
2018-03-24T05:31:09.652Z,35.20
2018-03-24T05:33:36.608Z,35.97
2018-03-24T05:36:03.531Z,32.43
2018-03-24T05:38:29.745Z,33.07
2018-03-24T05:40:55.943Z,31.67
2018-03-24T05:43:22.190Z,32.50
2018-03-24T05:45:48.387Z,32.90
2018-03-24T05:48:14.604Z,33.70
2018-03-24T05:50:40.788Z,35.77
2018-03-24T05:53:07.018Z,34.67
2018-03-24T05:55:34.144Z,34.80
2018-03-24T05:58:00.336Z,32.73
2018-03-24T06:00:27.314Z,31.47
2018-03-24T06:02:53.538Z,30.80
2018-03-24T06:05:19.736Z,29.20
2018-03-24T06:07:45.958Z,26.27
2018-03-24T06:10:12.901Z,25.97
2018-03-24T06:12:39.125Z,28.23
2018-03-24T06:15:06.075Z,25.83
2018-03-24T06:17:33.005Z,26.00
2018-03-24T06:19:59.497Z,24.10
2018-03-24T06:22:25.716Z,24.10
2018-03-24T06:24:51.925Z,23.53
2018-03-24T06:27:18.863Z,27.63
2018-03-24T06:29:45.860Z,24.77
2018-03-24T06:32:12.065Z,25.70
2018-03-24T06:34:38.276Z,25.30
2018-03-24T06:37:05.249Z,27.07
2018-03-24T06:39:31.436Z,23.97
2018-03-24T06:41:58.384Z,24.03
2018-03-24T06:44:25.308Z,26.90
2018-03-24T06:46:51.589Z,27.73
2018-03-24T06:49:18.537Z,26.43
2018-03-24T06:51:44.901Z,27.73
2018-03-24T06:54:11.101Z,26.53
2018-03-24T06:56:37.332Z,24.20
2018-03-24T06:59:03.545Z,25.57
2018-03-24T07:01:29.739Z,24.00
2018-03-24T07:03:55.972Z,25.23
2018-03-24T07:06:22.177Z,25.70
2018-03-24T07:08:48.396Z,26.90
2018-03-24T07:11:14.584Z,25.77
2018-03-24T07:13:41.537Z,26.90
2018-03-24T07:16:08.051Z,27.20
2018-03-24T07:18:35.025Z,24.70
2018-03-24T07:21:01.221Z,23.60
2018-03-24T07:23:28.403Z,24.57
2018-03-24T07:25:54.601Z,24.00
2018-03-24T07:28:21.536Z,26.27
2018-03-24T07:30:47.762Z,25.83
2018-03-24T07:33:13.955Z,23.80
2018-03-24T07:35:40.182Z,25.60
2018-03-24T07:38:06.428Z,24.40
2018-03-24T07:40:32.622Z,24.83
2018-03-24T07:42:58.812Z,23.63
2018-03-24T07:45:25.776Z,23.90
2018-03-24T07:47:52.712Z,24.40
2018-03-24T07:50:19.731Z,25.83
2018-03-24T07:52:45.920Z,28.57
2018-03-24T07:55:12.132Z,27.40
2018-03-24T07:57:38.347Z,26.07
2018-03-24T08:00:05.318Z,27.63
2018-03-24T08:02:31.512Z,26.77
2018-03-24T08:04:57.729Z,25.93
2018-03-24T08:07:23.934Z,26.20
2018-03-24T08:09:50.178Z,23.97
2018-03-24T08:12:16.745Z,22.77
2018-03-24T08:14:43.688Z,23.17
2018-03-24T08:17:10.646Z,19.87
2018-03-24T08:19:37.580Z,22.50
2018-03-24T08:22:04.601Z,21.07
2018-03-24T08:24:30.863Z,19.90
2018-03-24T08:26:57.092Z,21.17
2018-03-24T08:29:24.016Z,19.93
2018-03-24T08:31:51.708Z,19.17
2018-03-24T08:34:18.648Z,21.47
2018-03-24T08:36:45.609Z,21.93
2018-03-24T08:39:12.541Z,22.20
2018-03-24T08:41:39.500Z,21.03
2018-03-24T08:44:05.699Z,23.20
2018-03-24T08:46:32.662Z,23.03
2018-03-24T08:48:59.600Z,22.50
2018-03-24T08:51:25.808Z,23.73
2018-03-24T08:53:52.000Z,20.07
2018-03-24T08:56:18.248Z,19.97
2018-03-24T08:58:44.441Z,21.23
2018-03-24T09:01:10.713Z,21.00
2018-03-24T09:03:36.925Z,19.50
2018-03-24T09:06:03.112Z,19.80
2018-03-24T09:08:30.077Z,18.30
2018-03-24T09:10:56.275Z,20.37
2018-03-24T09:13:22.505Z,19.63
2018-03-24T09:15:49.456Z,20.23
2018-03-24T09:18:16.458Z,19.77
2018-03-24T09:20:42.654Z,21.40
2018-03-24T09:23:08.876Z,20.03
2018-03-24T09:25:35.093Z,19.10
2018-03-24T09:28:02.058Z,19.17
2018-03-24T09:30:28.277Z,19.30
2018-03-24T09:32:55.258Z,16.17
2018-03-24T09:35:21.453Z,17.20
2018-03-24T09:37:47.648Z,15.80
2018-03-24T09:40:13.860Z,18.47
2018-03-24T09:42:40.052Z,18.70
2018-03-24T09:45:06.266Z,18.60
2018-03-24T09:47:33.191Z,18.77
2018-03-24T09:49:59.428Z,15.60
2018-03-24T09:52:27.123Z,14.50
2018-03-24T09:54:53.343Z,15.60
2018-03-24T09:57:19.536Z,16.90
2018-03-24T09:59:45.756Z,17.13
2018-03-24T10:02:13.503Z,16.57
2018-03-24T10:04:39.737Z,16.30
2018-03-24T10:07:05.945Z,16.70
2018-03-24T10:09:32.154Z,14.80
2018-03-24T10:11:58.412Z,16.07
2018-03-24T10:14:24.603Z,14.63
2018-03-24T10:16:50.837Z,15.90
2018-03-24T10:19:17.029Z,14.23
2018-03-24T10:24:42.829Z,13.80
2018-03-24T10:27:09.052Z,11.97
2018-03-24T10:29:35.241Z,13.13
2018-03-24T10:32:02.204Z,13.90
2018-03-24T10:34:29.136Z,13.77
2018-03-24T10:36:56.099Z,14.57
2018-03-24T10:39:22.296Z,16.07
2018-03-24T10:41:48.561Z,14.33
2018-03-24T10:44:14.754Z,11.97
2018-03-24T10:46:40.958Z,15.40
2018-03-24T10:49:07.176Z,18.90
2018-03-24T10:51:33.448Z,18.03
2018-03-24T10:53:59.668Z,16.77
2018-03-24T10:56:25.860Z,15.67
2018-03-24T10:58:52.072Z,15.73
2018-03-24T11:01:25.252Z,16.83
2018-03-24T11:03:51.511Z,12.13
2018-03-24T11:06:17.732Z,17.33
2018-03-24T11:08:43.948Z,19.10
2018-03-24T11:11:10.204Z,19.07
2018-03-24T11:13:36.425Z,18.90
2018-03-24T11:16:02.680Z,22.70
2018-03-24T11:18:28.904Z,15.10
2018-03-24T11:20:55.124Z,15.17
2018-03-24T11:23:21.341Z,12.23
2018-03-24T11:25:47.528Z,12.40
2018-03-24T11:28:14.479Z,13.50
2018-03-24T11:30:41.409Z,13.67
2018-03-24T11:33:08.372Z,12.80
2018-03-24T11:35:35.300Z,13.40
2018-03-24T11:38:01.545Z,12.43
2018-03-24T11:40:28.788Z,13.73
2018-03-24T11:42:55.729Z,13.87
2018-03-24T11:45:22.701Z,14.33
2018-03-24T11:47:48.897Z,13.77
2018-03-24T11:50:15.196Z,13.13
2018-03-24T11:52:41.389Z,13.93
2018-03-24T11:55:07.621Z,12.70
2018-03-24T11:57:33.807Z,15.93
2018-03-24T12:00:07.732Z,14.20
2018-03-24T12:02:33.931Z,15.53
2018-03-24T12:05:00.144Z,16.10
2018-03-24T12:07:26.398Z,13.87
2018-03-24T12:09:52.608Z,17.20
2018-03-24T12:12:18.817Z,13.70
2018-03-24T12:14:45.008Z,14.73
2018-03-24T12:17:11.964Z,14.20
2018-03-24T12:19:38.903Z,13.47
2018-03-24T12:22:05.888Z,13.47
2018-03-24T12:24:32.085Z,16.10
2018-03-24T12:26:59.044Z,15.50
2018-03-24T12:29:25.232Z,16.50
2018-03-24T12:31:51.450Z,13.63
2018-03-24T12:34:17.640Z,14.67
2018-03-24T12:36:44.074Z,13.10
2018-03-24T12:39:10.270Z,12.77
2018-03-24T12:41:37.236Z,14.30
2018-03-24T12:44:03.428Z,13.40
2018-03-24T12:46:29.649Z,11.60
2018-03-24T12:48:55.845Z,11.60
2018-03-24T12:51:22.083Z,11.80
2018-03-24T12:53:48.367Z,11.53
2018-03-24T12:56:15.313Z,12.13
2018-03-24T12:58:42.288Z,13.17
2018-03-24T13:01:08.482Z,11.67
2018-03-24T13:03:35.446Z,11.93
2018-03-24T13:06:08.669Z,13.73
2018-03-24T13:08:34.896Z,14.07
2018-03-24T13:11:01.089Z,13.00
2018-03-24T13:13:28.050Z,14.90
2018-03-24T13:15:54.240Z,12.33
2018-03-24T13:18:20.461Z,13.20
2018-03-24T13:20:46.653Z,12.30
2018-03-24T13:23:12.911Z,12.30
2018-03-24T13:25:39.117Z,10.73
2018-03-24T13:28:05.309Z,11.20
2018-03-24T13:30:32.268Z,12.60
2018-03-24T13:32:58.461Z,12.70
2018-03-24T13:35:24.689Z,10.70
2018-03-24T13:37:50.881Z,11.73
2018-03-24T13:40:17.104Z,11.77
2018-03-24T13:42:43.378Z,11.10
2018-03-24T13:45:09.601Z,12.87
2018-03-24T13:47:35.800Z,12.33
2018-03-24T13:50:09.008Z,12.97
2018-03-24T13:52:35.205Z,13.17
2018-03-24T13:55:01.421Z,12.33
2018-03-24T13:57:27.616Z,12.27
2018-03-24T13:59:53.828Z,13.57
2018-03-24T14:02:20.018Z,12.43
2018-03-24T14:04:46.241Z,11.33
2018-03-24T14:07:12.428Z,12.87
2018-03-24T14:09:38.644Z,13.67
2018-03-24T14:12:04.828Z,12.00
2018-03-24T14:14:31.060Z,13.80
2018-03-24T14:16:57.256Z,13.43
2018-03-24T14:19:24.212Z,13.20
2018-03-24T14:21:51.168Z,13.43
2018-03-24T14:24:17.387Z,13.70
2018-03-24T14:26:44.319Z,20.73
2018-03-24T14:29:11.272Z,19.63
2018-03-24T14:31:38.200Z,17.30
2018-03-24T14:34:04.725Z,20.50
2018-03-24T14:36:30.921Z,16.37
2018-03-24T14:38:57.108Z,15.33
2018-03-24T14:41:24.088Z,16.23
2018-03-24T14:43:50.280Z,16.43
2018-03-24T14:46:17.241Z,15.73
2018-03-24T14:48:44.205Z,16.57
2018-03-24T14:51:10.436Z,15.83
2018-03-24T14:53:36.634Z,15.07
2018-03-24T14:56:03.629Z,15.43
2018-03-24T14:58:29.821Z,16.57
2018-03-24T15:00:56.784Z,15.30
2018-03-24T15:03:22.981Z,15.77
2018-03-24T15:05:49.976Z,15.67
2018-03-24T15:08:16.168Z,15.40
2018-03-24T15:10:43.105Z,16.27
2018-03-24T15:13:10.129Z,14.20
2018-03-24T15:15:36.337Z,15.10
2018-03-24T15:18:02.557Z,15.00
2018-03-24T15:20:28.740Z,14.80
2018-03-24T15:22:55.739Z,12.90
2018-03-24T15:25:21.928Z,13.50
2018-03-24T15:27:48.157Z,12.70
2018-03-24T15:30:27.477Z,15.17
2018-03-24T15:33:06.934Z,14.10
2018-03-24T15:35:33.167Z,13.80
2018-03-24T15:37:59.384Z,14.20
2018-03-24T15:40:26.348Z,13.83
2018-03-24T15:42:52.573Z,13.70
2018-03-24T15:45:18.772Z,12.60
2018-03-24T15:47:44.997Z,13.53
2018-03-24T15:50:11.200Z,14.40
2018-03-24T15:52:37.398Z,14.90
2018-03-24T15:55:03.621Z,13.97
2018-03-24T15:57:29.821Z,12.10
2018-03-24T15:59:56.793Z,13.03
2018-03-24T16:02:23.020Z,13.90
2018-03-24T16:04:49.241Z,13.07
2018-03-24T16:07:16.195Z,12.93
2018-03-24T16:09:42.418Z,13.30
2018-03-24T16:12:09.374Z,14.87
2018-03-24T16:14:35.592Z,14.23
2018-03-24T16:17:02.533Z,13.57
2018-03-24T16:19:29.493Z,12.07
2018-03-24T16:21:55.704Z,12.73
2018-03-24T16:24:22.664Z,11.80
2018-03-24T16:26:55.948Z,12.53
2018-03-24T16:29:22.904Z,12.90
2018-03-24T16:31:49.092Z,12.30
2018-03-24T16:34:15.309Z,11.90
2018-03-24T16:36:41.510Z,12.20
2018-03-24T16:39:07.723Z,13.30
2018-03-24T16:41:33.928Z,13.80
2018-03-24T16:44:00.908Z,13.30
2018-03-24T16:46:27.105Z,11.30
2018-03-24T16:48:54.049Z,11.77
2018-03-24T16:51:21.031Z,12.60
2018-03-24T16:53:47.243Z,10.80
2018-03-24T16:56:14.185Z,9.93
2018-03-24T16:58:41.129Z,9.07
2018-03-24T17:01:08.085Z,10.80
2018-03-24T17:03:34.285Z,9.20
2018-03-24T17:06:00.495Z,9.00
2018-03-24T17:08:26.693Z,8.73
2018-03-24T17:10:52.912Z,8.80
2018-03-24T17:13:19.104Z,7.43
2018-03-24T17:15:46.056Z,9.23
2018-03-24T17:18:12.990Z,8.27
2018-03-24T17:20:39.266Z,8.67
2018-03-24T17:23:05.476Z,9.37
2018-03-24T17:25:31.753Z,8.90
2018-03-24T17:27:58.003Z,8.30
2018-03-24T17:30:24.209Z,8.90
2018-03-24T17:32:50.404Z,9.63
2018-03-24T17:35:16.612Z,8.90
2018-03-24T17:37:43.559Z,9.80
2018-03-24T17:40:10.523Z,9.37
2018-03-24T17:42:36.725Z,8.80
2018-03-24T17:45:03.690Z,9.87
2018-03-24T17:47:29.888Z,8.17
2018-03-24T17:50:03.726Z,8.97
2018-03-24T17:52:29.939Z,9.53
2018-03-24T17:54:56.900Z,8.10
2018-03-24T17:57:23.104Z,9.40
2018-03-24T17:59:50.076Z,9.10
2018-03-24T18:02:16.283Z,9.40
2018-03-24T18:04:43.223Z,10.60
2018-03-24T18:07:09.449Z,12.97
2018-03-24T18:09:35.701Z,16.10
2018-03-24T18:12:02.640Z,16.10
2018-03-24T18:14:29.600Z,17.00
2018-03-24T18:16:55.793Z,15.57
2018-03-24T18:19:22.008Z,17.43
2018-03-24T18:21:48.252Z,16.20
2018-03-24T18:24:14.492Z,14.27
2018-03-24T18:26:40.691Z,15.70
2018-03-24T18:29:06.904Z,15.87
2018-03-24T18:31:33.100Z,14.93
2018-03-24T18:33:59.331Z,14.77
2018-03-24T18:36:25.532Z,15.20
2018-03-24T18:38:51.721Z,14.77
2018-03-24T18:41:17.958Z,15.10
2018-03-24T18:43:44.149Z,15.23
2018-03-24T18:46:10.372Z,13.40
2018-03-24T18:48:37.301Z,14.90
2018-03-24T18:51:04.256Z,13.27
2018-03-24T18:53:31.221Z,12.67
2018-03-24T18:55:57.445Z,13.87
2018-03-24T18:58:23.696Z,14.30
2018-03-24T19:00:49.920Z,16.30
2018-03-24T19:03:16.116Z,15.40
2018-03-24T19:05:43.085Z,14.57
2018-03-24T19:08:09.333Z,13.10
2018-03-24T19:10:35.528Z,14.03
2018-03-24T19:13:02.456Z,11.33
2018-03-24T19:15:29.416Z,12.73
2018-03-24T19:17:56.345Z,13.87
2018-03-24T19:20:22.556Z,13.20
2018-03-24T19:22:48.776Z,13.57
2018-03-24T19:25:15.005Z,13.70
2018-03-24T19:27:41.205Z,12.80
2018-03-24T19:30:07.425Z,12.77
2018-03-24T19:32:33.620Z,13.23
2018-03-24T19:34:59.849Z,11.40
2018-03-24T19:37:26.058Z,11.30
2018-03-24T19:39:52.277Z,11.50
2018-03-24T19:42:18.481Z,11.70
2018-03-24T19:44:44.673Z,12.47
2018-03-24T19:47:11.633Z,12.63
2018-03-24T19:49:37.853Z,12.50
2018-03-24T19:52:04.793Z,10.37
2018-03-24T19:54:31.753Z,12.17
2018-03-24T19:56:57.953Z,12.23
2018-03-24T19:59:24.200Z,11.77
2018-03-24T20:01:51.131Z,12.60
2018-03-24T20:04:17.340Z,12.87
2018-03-24T20:06:43.849Z,12.70
2018-03-24T20:09:10.028Z,12.25
2018-03-24T20:11:36.988Z,12.30
2018-03-24T20:14:03.921Z,13.15
2018-03-24T20:16:30.955Z,12.10
2018-03-24T20:18:57.137Z,11.30
2018-03-24T20:21:23.331Z,12.10
2018-03-24T20:23:50.305Z,12.83
2018-03-24T20:26:16.497Z,11.73
2018-03-24T20:28:43.452Z,11.40
2018-03-24T20:31:10.394Z,13.30
2018-03-24T20:33:37.362Z,11.23
2018-03-24T20:36:03.560Z,10.90
2018-03-24T20:38:29.777Z,13.37
2018-03-24T20:40:55.972Z,12.60
2018-03-24T20:43:22.189Z,11.07
2018-03-24T20:45:48.425Z,11.10
2018-03-24T20:48:14.639Z,13.03
2018-03-24T20:50:40.832Z,14.00
2018-03-24T20:53:07.053Z,12.30
2018-03-24T20:55:33.244Z,13.00
2018-03-24T20:57:59.460Z,13.80
2018-03-24T21:00:25.681Z,14.87
2018-03-24T21:02:51.887Z,12.17
2018-03-24T21:05:18.820Z,14.23
2018-03-24T21:07:45.104Z,13.87
2018-03-24T21:10:12.020Z,12.80
2018-03-24T21:12:38.216Z,12.30
2018-03-24T21:15:05.243Z,14.53
2018-03-24T21:17:31.440Z,13.57
2018-03-24T21:19:57.680Z,15.20
2018-03-24T21:22:23.896Z,14.90
2018-03-24T21:24:50.087Z,14.03
2018-03-24T21:27:16.306Z,14.40
2018-03-24T21:29:42.547Z,13.57
2018-03-24T21:32:08.777Z,12.40
2018-03-24T21:34:34.987Z,15.90
2018-03-24T21:37:01.196Z,14.17
2018-03-24T21:39:27.393Z,14.67
2018-03-24T21:41:53.608Z,16.20
2018-03-24T21:44:20.553Z,14.23
2018-03-24T21:46:47.513Z,15.00
2018-03-24T21:49:13.725Z,14.03
2018-03-24T21:51:40.688Z,15.10
2018-03-24T21:54:06.884Z,16.43
2018-03-24T21:56:33.190Z,15.30
2018-03-24T21:58:59.399Z,14.97
2018-03-24T22:01:25.617Z,17.03
2018-03-24T22:03:51.804Z,18.20
2018-03-24T22:06:18.028Z,17.47
2018-03-24T22:08:44.232Z,18.67
2018-03-24T22:11:10.448Z,21.50
2018-03-24T22:13:36.644Z,22.20
2018-03-24T22:16:02.926Z,21.63
2018-03-24T22:18:29.211Z,23.17
2018-03-24T22:20:56.138Z,23.53
2018-03-24T22:23:23.104Z,21.07
2018-03-24T22:25:49.372Z,21.00
2018-03-24T22:28:15.569Z,23.30
2018-03-24T22:30:41.801Z,25.60
2018-03-24T22:33:08.016Z,24.43
2018-03-24T22:35:34.201Z,24.83
2018-03-24T22:38:00.432Z,23.40
2018-03-24T22:40:26.624Z,25.00
2018-03-24T22:42:52.850Z,24.83
2018-03-24T22:45:19.069Z,23.87
2018-03-24T22:47:45.297Z,23.00
2018-03-24T22:50:11.485Z,24.73
2018-03-24T22:52:37.705Z,23.00
2018-03-24T22:55:03.901Z,22.50
2018-03-24T22:57:30.132Z,23.07
2018-03-24T22:59:57.076Z,22.27
2018-03-24T23:02:23.301Z,21.90
2018-03-24T23:04:49.533Z,21.60
2018-03-24T23:07:15.747Z,23.67
2018-03-24T23:09:42.000Z,22.77
2018-03-24T23:12:08.227Z,22.57
2018-03-24T23:14:34.444Z,22.90
2018-03-24T23:17:00.702Z,22.90
2018-03-24T23:19:26.901Z,24.60
2018-03-24T23:21:53.103Z,23.23
2018-03-24T23:24:20.105Z,23.10
2018-03-24T23:26:46.333Z,22.07
2018-03-24T23:29:12.537Z,21.57
2018-03-24T23:31:38.729Z,21.23
2018-03-24T23:34:05.683Z,23.93
2018-03-24T23:36:32.632Z,23.00
2018-03-24T23:38:58.824Z,25.40
2018-03-24T23:41:25.801Z,24.07
2018-03-24T23:43:52.735Z,23.73
2018-03-24T23:46:19.852Z,23.10
2018-03-24T23:48:46.048Z,24.47
2018-03-24T23:51:12.249Z,24.07
2018-03-24T23:53:39.441Z,25.10
2018-03-24T23:56:05.788Z,23.90
2018-03-24T23:58:32.005Z,26.57
